createdAt,value
2023-09-06T00:02:23.480Z,19.50
2023-09-06T00:04:51.016Z,19.61
2023-09-06T00:07:18.421Z,19.70
2023-09-06T00:09:45.868Z,19.62
2023-09-06T00:12:13.103Z,19.55
2023-09-06T00:14:40.845Z,19.89
2023-09-06T00:17:10.148Z,19.94
2023-09-06T00:19:37.351Z,20.13
2023-09-06T00:22:04.829Z,20.27
2023-09-06T00:24:35.241Z,20.03
2023-09-06T00:27:04.902Z,19.60
2023-09-06T00:29:33.756Z,18.83
2023-09-06T00:32:01.262Z,18.61
2023-09-06T00:34:28.710Z,18.80
2023-09-06T00:36:56.311Z,18.81
2023-09-06T00:39:24.648Z,18.91
2023-09-06T00:41:51.980Z,18.96
2023-09-06T00:44:20.359Z,19.20
2023-09-06T00:46:48.504Z,18.91
2023-09-06T00:49:16.187Z,18.72
2023-09-06T00:51:43.740Z,18.91
2023-09-06T00:54:11.616Z,18.75
2023-09-06T00:56:40.693Z,18.70
2023-09-06T00:59:11.813Z,18.93
2023-09-06T01:01:39.120Z,18.85
2023-09-06T01:04:06.655Z,18.86
2023-09-06T01:06:36.583Z,18.91
2023-09-06T01:09:07.141Z,18.53
2023-09-06T01:11:38.408Z,18.34
2023-09-06T01:14:05.816Z,18.15
2023-09-06T01:16:47.147Z,18.16
2023-09-06T01:19:19.470Z,18.66
2023-09-06T01:22:22.330Z,18.83
2023-09-06T01:24:50.667Z,18.59
2023-09-06T01:27:18.578Z,18.40
2023-09-06T01:29:45.837Z,18.78
2023-09-06T01:32:15.498Z,18.69
2023-09-06T01:34:43.465Z,17.89
2023-09-06T01:37:10.728Z,17.91
2023-09-06T01:39:38.335Z,17.94
2023-09-06T01:42:05.675Z,18.02
2023-09-06T01:44:33.216Z,18.06
2023-09-06T01:47:00.655Z,18.06
2023-09-06T01:49:29.738Z,17.86
2023-09-06T01:51:58.932Z,17.96
2023-09-06T01:54:26.302Z,17.95
2023-09-06T01:56:53.638Z,18.38
2023-09-06T01:59:21.097Z,18.57
2023-09-06T02:01:54.800Z,18.30
2023-09-06T02:04:22.290Z,18.20
2023-09-06T02:06:51.198Z,18.18
2023-09-06T02:09:19.046Z,18.23
2023-09-06T02:11:46.324Z,18.02
2023-09-06T02:14:13.631Z,17.92
2023-09-06T02:16:41.099Z,18.04
2023-09-06T02:19:09.285Z,18.00
2023-09-06T02:21:39.367Z,17.79
2023-09-06T02:24:09.871Z,18.11
2023-09-06T02:26:38.242Z,18.38
2023-09-06T02:29:06.066Z,18.26
2023-09-06T02:31:33.437Z,17.97
2023-09-06T02:34:00.797Z,17.97
2023-09-06T02:36:28.053Z,17.89
2023-09-06T02:38:56.210Z,17.92
2023-09-06T02:41:23.595Z,17.58
2023-09-06T02:43:50.931Z,17.65
2023-09-06T02:46:18.187Z,17.94
2023-09-06T02:48:48.119Z,18.06
2023-09-06T02:51:16.745Z,18.01
2023-09-06T02:53:47.126Z,17.96
2023-09-06T02:56:17.712Z,17.85
2023-09-06T02:58:46.365Z,18.01
2023-09-06T03:01:20.728Z,18.31
2023-09-06T03:03:54.738Z,17.97
2023-09-06T03:06:33.913Z,17.90
2023-09-06T03:09:10.258Z,17.63
2023-09-06T03:11:39.312Z,17.49
2023-09-06T03:14:07.000Z,17.40
2023-09-06T03:16:39.812Z,17.52
2023-09-06T03:19:11.295Z,18.12
2023-09-06T03:21:39.173Z,18.29
2023-09-06T03:24:13.370Z,17.65
2023-09-06T03:26:45.848Z,17.67
2023-09-06T03:29:16.476Z,17.41
2023-09-06T03:31:44.299Z,17.61
2023-09-06T03:34:14.428Z,17.69
2023-09-06T03:36:47.720Z,17.44
2023-09-06T03:39:15.544Z,17.38
2023-09-06T03:41:43.616Z,17.38
2023-09-06T03:44:11.009Z,17.48
2023-09-06T03:46:38.709Z,17.61
2023-09-06T03:49:09.321Z,17.65
2023-09-06T03:51:38.862Z,17.41
2023-09-06T03:54:07.240Z,17.46
2023-09-06T03:56:39.462Z,17.83
2023-09-06T03:59:09.751Z,17.62
2023-09-06T04:01:37.553Z,17.44
2023-09-06T04:04:05.821Z,17.27
2023-09-06T04:06:35.193Z,17.14
2023-09-06T04:09:04.045Z,17.09
2023-09-06T04:11:31.472Z,16.98
2023-09-06T04:13:58.724Z,17.11
2023-09-06T04:16:28.534Z,17.15
2023-09-06T04:18:57.277Z,17.13
2023-09-06T04:21:24.569Z,16.93
2023-09-06T04:23:51.767Z,17.02
2023-09-06T04:26:21.477Z,17.23
2023-09-06T04:28:50.784Z,16.91
2023-09-06T04:31:20.252Z,16.93
2023-09-06T04:33:48.941Z,17.21
2023-09-06T04:36:20.186Z,17.17
2023-09-06T04:38:50.690Z,16.93
2023-09-06T04:41:18.330Z,16.71
2023-09-06T04:43:53.261Z,16.82
2023-09-06T04:46:21.117Z,16.82
2023-09-06T04:48:51.211Z,16.93
2023-09-06T04:51:19.791Z,17.06
2023-09-06T04:53:47.228Z,17.10
2023-09-06T04:56:17.535Z,17.13
2023-09-06T04:58:50.175Z,16.99
2023-09-06T05:01:17.522Z,16.67
2023-09-06T05:03:46.748Z,16.42
2023-09-06T05:06:14.705Z,16.44
2023-09-06T05:08:42.893Z,16.82
2023-09-06T05:11:17.711Z,17.26
2023-09-06T05:13:48.532Z,17.39
2023-09-06T05:16:17.504Z,17.03
2023-09-06T05:18:46.622Z,17.44
2023-09-06T05:21:15.450Z,17.41
2023-09-06T05:23:42.678Z,18.07
2023-09-06T05:26:11.965Z,19.75
2023-09-06T05:28:44.187Z,21.34
2023-09-06T05:31:12.034Z,23.40
2023-09-06T05:33:42.366Z,25.13
2023-09-06T05:36:13.075Z,26.10
2023-09-06T05:38:40.696Z,26.73
2023-09-06T05:41:11.158Z,27.80
2023-09-06T05:43:41.695Z,27.67
2023-09-06T05:46:21.441Z,27.25
2023-09-06T05:48:58.808Z,27.14
2023-09-06T05:51:30.188Z,28.41
2023-09-06T05:54:02.670Z,29.07
2023-09-06T05:56:31.303Z,29.67
2023-09-06T05:59:01.118Z,30.57
2023-09-06T06:01:28.701Z,31.22
2023-09-06T06:03:56.145Z,32.64
2023-09-06T06:06:24.165Z,33.39
2023-09-06T06:08:51.537Z,33.72
2023-09-06T06:11:19.120Z,33.06
2023-09-06T06:13:50.650Z,34.74
2023-09-06T06:16:28.097Z,36.57
2023-09-06T06:18:55.708Z,37.57
2023-09-06T06:21:25.349Z,38.23
2023-09-06T06:23:52.826Z,39.12
2023-09-06T06:26:21.255Z,39.86
2023-09-06T06:28:50.209Z,40.22
2023-09-06T06:31:17.735Z,40.75
2023-09-06T06:33:45.115Z,38.87
2023-09-06T06:36:12.554Z,34.77
2023-09-06T06:38:41.338Z,33.20
2023-09-06T06:41:24.371Z,31.74
2023-09-06T06:43:51.767Z,33.09
2023-09-06T06:46:38.325Z,34.68
2023-09-06T06:49:08.370Z,35.56
2023-09-06T06:51:40.248Z,35.14
2023-09-06T06:54:15.798Z,38.22
2023-09-06T06:56:43.640Z,40.81
2023-09-06T06:59:11.840Z,42.04
2023-09-06T07:01:39.108Z,42.43
2023-09-06T07:04:06.990Z,43.66
2023-09-06T07:06:35.203Z,44.18
2023-09-06T07:09:05.714Z,44.70
2023-09-06T07:11:34.395Z,44.05
2023-09-06T07:14:01.741Z,44.74
2023-09-06T07:16:31.701Z,44.71
2023-09-06T07:18:59.787Z,43.90
2023-09-06T07:21:28.446Z,44.59
2023-09-06T07:23:56.811Z,44.30
2023-09-06T07:26:24.180Z,41.51
2023-09-06T07:28:51.544Z,41.64
2023-09-06T07:31:19.381Z,40.74
2023-09-06T07:33:46.867Z,41.92
2023-09-06T07:36:15.344Z,43.43
2023-09-06T07:38:42.835Z,45.15
2023-09-06T07:41:10.304Z,46.80
2023-09-06T07:43:38.918Z,47.45
2023-09-06T07:46:11.001Z,44.75
2023-09-06T07:48:40.338Z,40.26
2023-09-06T07:51:09.217Z,39.42
2023-09-06T07:53:36.548Z,38.28
2023-09-06T07:56:07.020Z,35.74
2023-09-06T07:58:34.766Z,34.80
2023-09-06T08:01:17.172Z,35.38
2023-09-06T08:03:48.070Z,36.44
2023-09-06T08:06:17.010Z,37.74
2023-09-06T08:08:45.037Z,39.93
2023-09-06T08:11:12.595Z,42.02
2023-09-06T08:13:40.024Z,41.58
2023-09-06T08:16:07.251Z,43.93
2023-09-06T08:18:35.172Z,38.82
2023-09-06T08:21:03.203Z,39.69
2023-09-06T08:23:30.845Z,41.36
2023-09-06T08:25:58.429Z,43.79
2023-09-06T08:28:25.757Z,45.16
2023-09-06T08:30:53.865Z,46.76
2023-09-06T08:33:21.259Z,46.62
2023-09-06T08:35:48.656Z,45.75
2023-09-06T08:38:16.009Z,47.94
2023-09-06T08:40:43.235Z,48.37
2023-09-06T08:43:13.701Z,49.48
2023-09-06T08:45:44.962Z,50.08
2023-09-06T08:48:13.311Z,49.95
2023-09-06T08:50:41.799Z,50.35
2023-09-06T08:53:12.166Z,49.20
2023-09-06T08:55:39.661Z,49.81
2023-09-06T08:58:07.200Z,50.17
2023-09-06T09:00:36.504Z,47.52
2023-09-06T09:03:04.276Z,47.97
2023-09-06T09:05:31.624Z,48.76
2023-09-06T09:08:01.904Z,48.81
2023-09-06T09:10:34.580Z,49.31
2023-09-06T09:13:02.918Z,48.78
2023-09-06T09:15:34.863Z,49.66
2023-09-06T09:18:14.704Z,49.70
2023-09-06T09:20:44.627Z,49.83
2023-09-06T09:23:16.005Z,50.77
2023-09-06T09:25:53.007Z,51.29
2023-09-06T09:28:21.281Z,51.93
2023-09-06T09:30:50.197Z,50.33
2023-09-06T09:33:19.665Z,49.64
2023-09-06T09:35:48.617Z,48.62
2023-09-06T09:38:16.208Z,48.72
2023-09-06T09:43:13.499Z,45.29
2023-09-06T09:45:44.938Z,48.41
2023-09-06T09:48:13.338Z,49.09
2023-09-06T09:50:43.527Z,48.87
2023-09-06T09:55:49.963Z,49.50
2023-09-06T09:58:20.763Z,49.86
2023-09-06T10:00:53.711Z,50.45
2023-09-06T10:03:24.254Z,51.12
2023-09-06T10:05:54.140Z,50.39
2023-09-06T10:08:23.094Z,50.94
2023-09-06T10:10:52.481Z,51.04
2023-09-06T10:13:20.015Z,51.15
2023-09-06T10:15:51.043Z,51.63
2023-09-06T10:18:18.506Z,51.16
2023-09-06T10:20:47.498Z,50.84
2023-09-06T10:23:15.441Z,49.09
2023-09-06T10:25:50.768Z,49.17
2023-09-06T10:28:24.869Z,48.70
2023-09-06T10:31:08.537Z,48.00
2023-09-06T10:33:38.555Z,47.70
2023-09-06T10:36:28.706Z,47.89
2023-09-06T10:38:56.807Z,49.15
2023-09-06T10:41:27.939Z,49.53
2023-09-06T10:44:08.368Z,44.10
2023-09-06T10:46:38.549Z,44.00
2023-09-06T10:49:30.592Z,43.36
2023-09-06T10:52:09.926Z,43.40
2023-09-06T10:54:46.293Z,45.63
2023-09-06T10:57:15.941Z,45.96
2023-09-06T10:59:58.854Z,40.79
2023-09-06T11:02:29.615Z,39.72
2023-09-06T11:05:11.314Z,41.41
2023-09-06T11:10:26.377Z,42.56
2023-09-06T11:13:19.632Z,44.08
2023-09-06T11:15:51.729Z,42.10
2023-09-06T11:18:19.098Z,40.70
2023-09-06T11:20:51.531Z,43.17
2023-09-06T11:23:19.066Z,44.17
2023-09-06T11:25:46.827Z,38.84
2023-09-06T11:28:20.331Z,38.29
2023-09-06T11:30:49.436Z,40.56
2023-09-06T11:33:19.379Z,41.88
2023-09-06T11:35:57.890Z,39.24
2023-09-06T11:38:34.452Z,40.39
2023-09-06T11:41:05.069Z,42.42
2023-09-06T11:43:34.649Z,42.22
2023-09-06T11:46:05.500Z,38.91
2023-09-06T11:48:35.311Z,37.05
2023-09-06T11:51:09.596Z,34.93
2023-09-06T11:53:47.016Z,36.63
2023-09-06T11:56:15.757Z,38.76
2023-09-06T11:58:50.830Z,40.64
2023-09-06T12:01:23.640Z,37.86
2023-09-06T12:03:54.526Z,38.51
2023-09-06T12:06:22.837Z,38.35
2023-09-06T12:08:52.137Z,38.45
2023-09-06T12:11:24.652Z,40.13
2023-09-06T12:13:53.291Z,38.92
2023-09-06T12:16:21.422Z,38.37
2023-09-06T12:18:51.608Z,40.01
2023-09-06T12:21:20.782Z,39.64
2023-09-06T12:23:48.532Z,39.11
2023-09-06T12:26:18.178Z,37.89
2023-09-06T12:28:45.423Z,39.59
2023-09-06T12:31:17.588Z,41.33
2023-09-06T12:33:49.084Z,38.15
2023-09-06T12:36:19.220Z,38.06
2023-09-06T12:38:47.429Z,36.41
2023-09-06T12:41:14.970Z,38.52
2023-09-06T12:43:42.167Z,37.84
2023-09-06T12:46:10.056Z,37.23
2023-09-06T12:48:37.579Z,36.91
2023-09-06T12:51:08.656Z,36.77
2023-09-06T12:53:37.310Z,36.15
2023-09-06T12:56:04.922Z,36.47
2023-09-06T12:58:33.890Z,37.21
2023-09-06T13:01:04.223Z,36.85
2023-09-06T13:03:31.898Z,35.67
2023-09-06T13:06:03.226Z,36.36
2023-09-06T13:08:34.028Z,36.96
2023-09-06T13:11:01.967Z,37.62
2023-09-06T13:13:29.227Z,37.29
2023-09-06T13:15:56.638Z,35.52
2023-09-06T13:18:24.004Z,34.46
2023-09-06T13:20:57.683Z,35.23
2023-09-06T13:23:25.664Z,36.41
2023-09-06T13:25:53.058Z,36.87
2023-09-06T13:28:20.329Z,35.82
2023-09-06T13:30:47.616Z,36.98
2023-09-06T13:33:14.972Z,36.59
2023-09-06T13:35:42.337Z,36.04
2023-09-06T13:38:09.576Z,36.27
2023-09-06T13:40:36.927Z,36.24
2023-09-06T13:43:04.497Z,35.33
2023-09-06T13:45:31.998Z,36.03
2023-09-06T13:47:59.354Z,35.53
2023-09-06T13:50:26.604Z,35.31
2023-09-06T13:52:53.842Z,36.03
2023-09-06T13:55:21.227Z,36.70
2023-09-06T13:57:48.669Z,35.57
2023-09-06T14:00:17.662Z,34.99
2023-09-06T14:02:45.077Z,35.03
2023-09-06T14:05:12.575Z,35.71
2023-09-06T14:07:39.910Z,36.01
2023-09-06T14:10:08.039Z,36.36
2023-09-06T14:12:35.364Z,36.08
2023-09-06T14:15:02.772Z,36.63
2023-09-06T14:17:30.337Z,36.09
2023-09-06T14:19:57.797Z,35.27
2023-09-06T14:22:25.317Z,35.89
2023-09-06T14:24:52.538Z,36.38
2023-09-06T14:27:20.219Z,36.73
2023-09-06T14:29:47.499Z,35.32
2023-09-06T14:32:15.170Z,35.72
2023-09-06T14:34:42.555Z,35.61
2023-09-06T14:37:09.888Z,35.94
2023-09-06T14:39:38.330Z,35.95
2023-09-06T14:42:08.505Z,34.84
2023-09-06T14:44:36.307Z,35.51
2023-09-06T14:47:04.612Z,35.24
2023-09-06T14:49:31.943Z,35.29
2023-09-06T14:52:01.685Z,34.20
2023-09-06T14:54:29.961Z,33.55
2023-09-06T14:56:59.199Z,33.55
2023-09-06T14:59:27.663Z,33.91
2023-09-06T15:01:54.935Z,34.49
2023-09-06T15:04:22.501Z,33.31
2023-09-06T15:06:59.354Z,33.37
2023-09-06T15:09:28.488Z,34.67
2023-09-06T15:11:56.341Z,35.57
2023-09-06T15:14:25.012Z,34.70
2023-09-06T15:16:52.318Z,33.80
2023-09-06T15:19:19.546Z,34.75
2023-09-06T15:21:47.104Z,35.14
2023-09-06T15:24:15.109Z,33.84
2023-09-06T15:26:42.849Z,34.87
2023-09-06T15:29:14.696Z,35.32
2023-09-06T15:31:47.663Z,34.80
2023-09-06T15:34:37.570Z,34.40
2023-09-06T15:37:10.771Z,34.18
2023-09-06T15:39:41.653Z,35.14
2023-09-06T15:42:13.436Z,34.89
2023-09-06T15:44:43.570Z,34.84
2023-09-06T15:47:27.915Z,35.03
2023-09-06T15:50:16.091Z,34.30
2023-09-06T15:52:50.154Z,33.24
2023-09-06T15:55:29.128Z,34.00
2023-09-06T16:00:49.952Z,34.01
2023-09-06T16:06:47.967Z,34.28
2023-09-06T16:09:22.157Z,35.06
2023-09-06T16:11:59.602Z,34.54
2023-09-06T16:14:42.159Z,33.81
2023-09-06T16:17:27.017Z,33.78
2023-09-06T16:19:56.792Z,33.29
2023-09-06T16:22:24.288Z,34.03
2023-09-06T16:25:09.269Z,33.87
2023-09-06T16:27:44.246Z,33.66
2023-09-06T16:30:22.277Z,33.56
2023-09-06T16:32:56.816Z,33.63
2023-09-06T16:38:37.448Z,33.44
2023-09-06T16:41:04.870Z,33.13
2023-09-06T16:43:32.165Z,32.82
2023-09-06T16:45:59.510Z,33.69
2023-09-06T16:48:27.158Z,33.62
2023-09-06T16:50:54.808Z,33.77
2023-09-06T16:53:22.503Z,33.44
2023-09-06T16:55:49.734Z,32.97
2023-09-06T16:58:18.399Z,33.26
2023-09-06T17:00:45.586Z,33.35
2023-09-06T17:03:13.020Z,32.86
2023-09-06T17:05:40.330Z,33.27
2023-09-06T17:08:07.717Z,33.55
2023-09-06T17:10:35.577Z,33.75
2023-09-06T17:13:03.875Z,33.91
2023-09-06T17:15:32.560Z,33.85
2023-09-06T17:17:59.925Z,33.61
2023-09-06T17:20:28.098Z,33.28
2023-09-06T17:22:58.653Z,33.38
2023-09-06T17:25:26.792Z,33.19
2023-09-06T17:27:57.369Z,32.76
2023-09-06T17:30:25.871Z,32.09
2023-09-06T17:33:15.139Z,31.84
2023-09-06T17:35:45.926Z,31.36
2023-09-06T17:38:17.144Z,31.40
2023-09-06T17:40:54.362Z,31.42
2023-09-06T17:43:23.525Z,30.67
2023-09-06T17:45:52.424Z,31.01
2023-09-06T17:48:22.035Z,30.94
2023-09-06T17:50:55.809Z,30.76
2023-09-06T17:53:31.084Z,30.51
2023-09-06T17:56:13.814Z,30.06
2023-09-06T17:58:46.647Z,29.95
2023-09-06T18:01:15.932Z,29.72
2023-09-06T18:03:46.733Z,29.73
2023-09-06T18:06:16.050Z,29.62
2023-09-06T18:08:46.477Z,29.45
2023-09-06T18:11:13.941Z,29.34
2023-09-06T18:13:42.942Z,29.37
2023-09-06T18:16:18.143Z,29.13
2023-09-06T18:18:46.115Z,28.99
2023-09-06T18:21:16.720Z,28.72
2023-09-06T18:23:45.794Z,28.57
2023-09-06T18:26:14.097Z,28.27
2023-09-06T18:28:41.564Z,27.96
2023-09-06T18:31:09.544Z,27.91
2023-09-06T18:33:38.278Z,27.73
2023-09-06T18:36:10.566Z,27.60
2023-09-06T18:38:39.039Z,27.74
2023-09-06T18:41:13.663Z,27.40
2023-09-06T18:43:41.043Z,27.38
2023-09-06T18:46:09.004Z,27.12
2023-09-06T18:48:38.487Z,27.17
2023-09-06T18:51:08.280Z,27.28
2023-09-06T18:53:38.331Z,26.98
2023-09-06T18:56:08.744Z,26.99
2023-09-06T18:58:37.880Z,27.40
2023-09-06T19:01:15.260Z,27.30
2023-09-06T19:03:43.471Z,27.35
2023-09-06T19:06:14.870Z,27.01
2023-09-06T19:08:42.689Z,27.07
2023-09-06T19:11:11.209Z,26.76
2023-09-06T19:13:39.187Z,26.71
2023-09-06T19:16:06.631Z,26.68
2023-09-06T19:18:34.363Z,26.40
2023-09-06T19:21:01.947Z,26.25
2023-09-06T19:23:30.217Z,26.06
2023-09-06T19:25:57.599Z,25.74
2023-09-06T19:28:25.648Z,25.75
2023-09-06T19:30:59.760Z,25.50
2023-09-06T19:33:29.241Z,25.16
2023-09-06T19:35:56.997Z,24.99
2023-09-06T19:38:24.924Z,24.77
2023-09-06T19:40:55.048Z,24.73
2023-09-06T19:43:24.416Z,24.76
2023-09-06T19:45:57.109Z,24.88
2023-09-06T19:48:26.026Z,24.75
2023-09-06T19:50:53.551Z,24.56
2023-09-06T19:53:20.948Z,24.84
2023-09-06T19:55:49.441Z,24.88
2023-09-06T19:58:17.254Z,24.88
2023-09-06T20:00:44.493Z,24.71
2023-09-06T20:03:12.098Z,24.50
2023-09-06T20:05:39.694Z,24.48
2023-09-06T20:08:07.047Z,24.28
2023-09-06T20:10:47.334Z,24.17
2023-09-06T20:13:14.901Z,24.18
2023-09-06T20:15:42.284Z,24.38
2023-09-06T20:18:09.518Z,23.96
2023-09-06T20:20:39.218Z,23.84
2023-09-06T20:23:07.895Z,23.77
2023-09-06T20:25:35.107Z,23.71
2023-09-06T20:28:02.328Z,23.51
2023-09-06T20:30:29.634Z,23.36
2023-09-06T20:32:58.440Z,23.52
2023-09-06T20:35:25.825Z,23.72
2023-09-06T20:37:53.056Z,24.15
2023-09-06T20:40:20.314Z,24.11
2023-09-06T20:42:47.623Z,23.64
2023-09-06T20:45:15.025Z,23.24
2023-09-06T20:47:42.575Z,22.84
2023-09-06T20:50:15.640Z,22.91
2023-09-06T20:52:42.957Z,22.99
2023-09-06T20:55:10.205Z,23.15
2023-09-06T20:57:38.462Z,23.03
2023-09-06T21:00:10.372Z,23.15
2023-09-06T21:02:38.284Z,22.96
2023-09-06T21:05:06.142Z,22.94
2023-09-06T21:07:33.491Z,22.83
2023-09-06T21:10:00.702Z,22.86
2023-09-06T21:12:28.309Z,22.72
2023-09-06T21:14:55.760Z,22.72
2023-09-06T21:17:23.057Z,22.86
2023-09-06T21:19:50.882Z,22.74
2023-09-06T21:22:18.149Z,22.80
2023-09-06T21:24:46.037Z,22.74
2023-09-06T21:27:13.326Z,22.70
2023-09-06T21:29:40.439Z,22.47
2023-09-06T21:32:07.739Z,22.50
2023-09-06T21:34:35.078Z,22.43
2023-09-06T21:37:02.393Z,22.29
2023-09-06T21:39:29.661Z,22.34
2023-09-06T21:41:56.970Z,22.35
2023-09-06T21:44:24.968Z,22.44
2023-09-06T21:46:52.309Z,22.40
2023-09-06T21:49:19.690Z,22.32
2023-09-06T21:51:47.039Z,22.31
2023-09-06T21:54:14.432Z,22.30
2023-09-06T21:56:41.717Z,22.15
2023-09-06T21:59:11.397Z,22.17
2023-09-06T22:01:38.707Z,22.12
2023-09-06T22:04:24.850Z,22.11
2023-09-06T22:07:10.915Z,21.99
2023-09-06T22:09:56.858Z,21.74
2023-09-06T22:12:43.264Z,21.65
2023-09-06T22:15:13.086Z,21.77
2023-09-06T22:17:41.303Z,21.75
2023-09-06T22:20:10.112Z,21.61
2023-09-06T22:22:37.500Z,21.68
2023-09-06T22:25:07.298Z,21.13
2023-09-06T22:27:35.876Z,21.13
2023-09-06T22:30:05.528Z,21.35
2023-09-06T22:32:32.897Z,21.55
2023-09-06T22:35:00.292Z,21.24
2023-09-06T22:37:29.138Z,21.21
2023-09-06T22:39:56.446Z,21.09
2023-09-06T22:42:23.836Z,21.14
2023-09-06T22:44:51.052Z,21.07
2023-09-06T22:47:18.348Z,21.02
2023-09-06T22:49:45.862Z,21.03
2023-09-06T22:52:13.242Z,21.09
2023-09-06T22:54:40.757Z,21.12
2023-09-06T22:57:12.032Z,20.99
2023-09-06T22:59:39.189Z,20.99
2023-09-06T23:02:06.819Z,20.79
2023-09-06T23:04:34.393Z,20.72
2023-09-06T23:07:02.344Z,20.58
2023-09-06T23:09:30.534Z,20.59
2023-09-06T23:11:58.055Z,20.54
2023-09-06T23:14:29.121Z,20.37
2023-09-06T23:16:56.599Z,20.64
2023-09-06T23:19:29.945Z,20.99
2023-09-06T23:21:59.449Z,20.87
2023-09-06T23:24:28.942Z,20.92
2023-09-06T23:27:08.154Z,20.79
2023-09-06T23:29:45.041Z,20.98
2023-09-06T23:32:16.488Z,20.90
2023-09-06T23:34:48.465Z,21.00
2023-09-06T23:37:16.489Z,20.65
2023-09-06T23:39:45.355Z,20.45
2023-09-06T23:42:15.293Z,20.35
2023-09-06T23:44:43.481Z,20.69
2023-09-06T23:47:16.807Z,20.80
2023-09-06T23:49:45.818Z,20.89
2023-09-06T23:52:14.330Z,20.50
2023-09-06T23:54:48.189Z,20.11
2023-09-06T23:57:19.307Z,20.27
2023-09-06T23:59:48.076Z,20.22
